Mount Hood Parkdale, OR (97041)

2:21 PM PST on December 21, 2014 (GMT -0800)
Parkdale West | Change Station
CLOSE
Current Station
Personal Weather Station
Location: Mt Hood Parkdale, OR
Elevation: 1473 ft
Nearby Weather Stations

Elev 1473 ft 45.54 °N, 121.62 °W | Updated 5 seconds ago

Rain
Rain
47.0 °F
Feels Like 47 °F
N
1.0
Wind Variable Wind from South
Gusts 0.0 mph

Today
High -- | Low -- °F
--% Chance of Precip.
Yesterday
High -- | Low -- °F
Precip. -- in
7:43 AM 4:25 PM
Waning Crescent, 0% visible
Pressure 30.01 in
Visibility 10.0 miles
Clouds Scattered Clouds 6000 ft
Mostly Cloudy 8000 ft
Overcast 10000 ft
Windchill 47 °F
Dew Point 44 °F
Humidity 90%
Rainfall 1.19 in
Snow Depth Not available.
UV 0 out of 12
Pollen .50 out of 12
Air Quality Not available.
Flu Activity Not available.
METAR KDLS 212153Z AUTO 30004KT 10SM SCT060 BKN080 OVC100 12/07 A3001 RMK AO2 RAB11E46 SLP162 P0001 T01170072

More Conditions Fewer Conditions

Pressure 30.01 in
Visibility 10.0 miles
Clouds Scattered Clouds 6000 ft
Mostly Cloudy 8000 ft
Overcast 10000 ft
Windchill 47 °F
Dew Point 44 °F
Humidity 90%
Rainfall 1.19 in
Snow Depth Not available.
UV 0 out of 12
Pollen .50 out of 12
Air Quality Not available.
Flu Activity Not available.
METAR KDLS 212153Z AUTO 30004KT 10SM SCT060 BKN080 OVC100 12/07 A3001 RMK AO2 RAB11E46 SLP162 P0001 T01170072

More Conditions Fewer Conditions

10-Day Weather Forecast

Almanac

Astronomy

Dec. 21, 2014 Rise Set
Actual Time
Civil Twilight
Nautical Twilight
Astronomical Twilight
Moon
Length of Visible Light
Length of Day
Tomorrow will be .
, % of the Moon is Illuminated

Today's Extremes

State Highs State Lows

Community

WunderPhotos

Upload Photos

1,779,499 photos uploaded!

WunderBlogs® & News

Nearby

Air Quality

  Air Quality AQ Index Pollutant
Not available.

Snow Depth

Station Depth Elevation

Earthquake Activity

City Distance Mag. Time & Date
Minimum magnitude displayed is 2.5.

Coastal Water Temperatures

Place Temperature

Nearby Weather Stations